Time;durP1;ratioP1;P1;durP2;ratioP2;P2;SDS_P1;SDS_P2;PMS_P1;PMS_P2;Temp;Humidity;BMP_temperature;BMP_pressure;BME280_temperature;BME280_humidity;BME280_pressure;Samples;Min_cycle;Max_cycle;Signal;HPM_P1;HPM_P2
2023/02/25 03:56:43;;;;;;;4.53;2.42;;;;;;;4.62;68.82;95537.38;5038895;28;20038;-87
2023/02/25 03:59:25;;;;;;;4.35;2.50;;;;;;;4.66;68.47;95534.28;5040298;28;20060;-85
2023/02/25 04:02:03;;;;;;;4.82;2.38;;;;;;;4.70;68.30;95534.72;5040720;28;20033;-86
2023/02/25 04:10:34;;;;;;;5.13;2.85;;;;;;;4.82;67.80;95551.44;5039046;28;20038;-86
2023/02/25 04:13:52;;;;;;;6.00;2.92;;;;;;;4.80;68.88;95560.34;5023675;28;20038;-85
2023/02/25 04:24:20;;;;;;;5.97;2.53;;;;;;;4.91;67.53;95552.19;4849749;22;20046;-77
2023/02/25 04:26:47;;;;;;;6.30;2.67;;;;;;;4.91;67.36;95552.97;5015823;28;20137;-78
2023/02/25 04:29:15;;;;;;;5.10;2.45;;;;;;;4.89;67.14;95552.34;5015528;28;20560;-78
2023/02/25 04:31:42;;;;;;;4.15;2.78;;;;;;;4.92;67.40;95554.59;5020488;28;20054;-78
2023/02/25 04:34:10;;;;;;;3.80;2.25;;;;;;;4.94;67.46;95557.81;5036007;28;20049;-78
2023/02/25 04:36:40;;;;;;;4.57;2.67;;;;;;;4.95;67.13;95558.63;5028081;28;20421;-78
2023/02/25 04:39:07;;;;;;;7.07;3.10;;;;;;;4.95;67.22;95553.47;5015603;28;20099;-78
2023/02/25 04:41:37;;;;;;;6.47;2.75;;;;;;;4.93;67.15;95547.66;5016051;28;20042;-77
2023/02/25 04:44:06;;;;;;;8.00;3.28;;;;;;;4.88;66.98;95561.09;5015572;28;20045;-78
2023/02/25 04:46:35;;;;;;;10.52;3.92;;;;;;;4.87;67.76;95548.34;5015623;28;20125;-77
2023/02/25 04:49:04;;;;;;;5.00;3.17;;;;;;;4.86;67.08;95560.47;5014654;28;20050;-77
2023/02/25 04:51:32;;;;;;;7.82;3.72;;;;;;;4.85;67.50;95561.41;5015254;28;20056;-78
2023/02/25 04:54:00;;;;;;;9.30;3.80;;;;;;;4.87;67.53;95561.25;5015222;28;20088;-77
2023/02/25 04:56:28;;;;;;;4.90;3.53;;;;;;;4.88;67.18;95574.00;5015087;28;20483;-77
2023/02/25 04:58:57;;;;;;;5.45;3.45;;;;;;;4.88;67.07;95561.09;5014578;28;20050;-78
2023/02/25 05:01:25;;;;;;;6.75;3.55;;;;;;;4.90;67.12;95571.28;5015107;28;20058;-78
2023/02/25 05:03:57;;;;;;;12.23;3.42;;;;;;;4.85;66.28;95563.22;5015037;28;20046;-78
2023/02/25 05:06:25;;;;;;;4.85;2.92;;;;;;;4.76;66.04;95562.44;5015315;28;20473;-78
2023/02/25 05:08:54;;;;;;;8.40;2.90;;;;;;;4.74;66.40;95566.97;5014548;28;20046;-77
2023/02/25 05:11:21;;;;;;;6.30;2.85;;;;;;;4.70;65.93;95566.53;5014921;28;20566;-77
2023/02/25 05:13:49;;;;;;;7.03;3.00;;;;;;;4.67;65.86;95563.47;5014501;28;20522;-77
2023/02/25 05:16:19;;;;;;;5.70;2.33;;;;;;;4.65;66.21;95558.47;5014417;28;20420;-77
2023/02/25 05:18:47;;;;;;;6.82;2.97;;;;;;;4.65;65.74;95563.63;5014365;28;20085;-77
2023/02/25 05:21:17;;;;;;;5.95;2.47;;;;;;;4.62;65.75;95552.88;5015039;28;20072;-78
2023/02/25 05:23:47;;;;;;;5.90;2.58;;;;;;;4.54;65.30;95566.63;5014859;28;20056;-78
2023/02/25 05:26:15;;;;;;;8.43;2.42;;;;;;;4.46;66.05;95558.91;5014604;28;20048;-77
2023/02/25 05:28:43;;;;;;;7.30;2.65;;;;;;;4.43;65.63;95562.63;5014515;28;20482;-77
2023/02/25 05:31:12;;;;;;;4.20;2.28;;;;;;;4.45;66.26;95563.25;5014928;28;20049;-77
2023/02/25 05:33:41;;;;;;;5.18;2.50;;;;;;;4.48;65.88;95562.94;5014336;28;20081;-78
2023/02/25 05:36:12;;;;;;;7.38;2.40;;;;;;;4.47;65.77;95551.00;5014416;28;20133;-78
2023/02/25 05:38:40;;;;;;;7.43;3.03;;;;;;;4.46;66.53;95554.56;5013665;28;20140;-77
2023/02/25 05:41:09;;;;;;;6.63;3.15;;;;;;;4.45;66.62;95567.63;5014504;28;20053;-77
2023/02/25 05:43:39;;;;;;;8.70;2.72;;;;;;;4.43;66.65;95562.63;5014409;28;20491;-77
2023/02/25 05:46:10;;;;;;;8.02;3.25;;;;;;;4.42;66.39;95566.19;5014467;28;20133;-77
2023/02/25 05:48:38;;;;;;;9.63;2.72;;;;;;;4.45;67.42;95570.22;5013665;28;20088;-77
2023/02/25 05:51:11;;;;;;;16.70;4.28;;;;;;;4.47;67.41;95571.66;5014247;28;20046;-78
2023/02/25 05:53:39;;;;;;;4.78;2.92;;;;;;;4.52;66.75;95565.97;5013925;28;20056;-77
2023/02/25 05:56:10;;;;;;;5.55;3.22;;;;;;;4.54;66.86;95570.00;5014344;28;20125;-77
2023/02/25 05:58:38;;;;;;;7.88;3.05;;;;;;;4.55;66.77;95570.81;5013356;28;20060;-77
2023/02/25 06:01:09;;;;;;;8.73;3.03;;;;;;;4.54;66.32;95575.16;5013943;28;20574;-77
2023/02/25 06:03:37;;;;;;;4.47;3.00;;;;;;;4.55;66.02;95578.56;5013773;28;20137;-77
2023/02/25 06:06:06;;;;;;;5.63;3.08;;;;;;;4.55;66.03;95583.72;5013132;28;20049;-77
2023/02/25 06:08:35;;;;;;;5.30;2.80;;;;;;;4.57;66.40;95591.28;5012831;28;20590;-78
2023/02/25 06:11:05;;;;;;;6.82;3.28;;;;;;;4.51;66.17;95585.03;5013701;28;20062;-78
2023/02/25 06:13:34;;;;;;;7.30;2.63;;;;;;;4.49;66.17;95594.72;5013525;28;20049;-77
2023/02/25 06:16:03;;;;;;;6.63;2.78;;;;;;;4.49;65.71;95595.53;5013652;28;20136;-77
2023/02/25 06:18:35;;;;;;;5.60;2.90;;;;;;;4.51;66.15;95598.75;5012688;28;20089;-78
2023/02/25 06:21:05;;;;;;;8.30;3.47;;;;;;;4.53;66.39;95594.22;5013498;28;20077;-78
2023/02/25 06:23:35;;;;;;;4.95;2.47;;;;;;;4.57;66.10;95606.78;5013728;28;20060;-76
2023/02/25 06:26:06;;;;;;;5.18;2.15;;;;;;;4.56;65.33;95606.00;5013341;28;20045;-77
2023/02/25 06:28:35;;;;;;;9.55;2.40;;;;;;;4.52;65.27;95602.13;5012726;28;20054;-77
2023/02/25 06:31:07;;;;;;;7.13;2.55;;;;;;;4.49;64.65;95607.66;5013506;28;20048;-77
2023/02/25 06:33:34;;;;;;;7.68;2.03;;;;;;;4.45;64.56;95604.56;5013289;28;20072;-77
2023/02/25 06:36:03;;;;;;;8.38;2.78;;;;;;;4.43;64.01;95619.44;5013566;28;20124;-78
2023/02/25 06:38:31;;;;;;;7.25;2.20;;;;;;;4.44;63.85;95623.66;5012737;28;20080;-77
2023/02/25 06:41:04;;;;;;;4.65;2.00;;;;;;;4.44;63.63;95622.81;5012680;28;20050;-77
2023/02/25 06:43:32;;;;;;;3.53;2.13;;;;;;;4.47;64.74;95623.28;5012560;28;20488;-79
2023/02/25 06:46:04;;;;;;;5.10;2.08;;;;;;;4.52;64.09;95620.22;5016012;28;20207;-80
2023/02/25 06:48:31;;;;;;;8.20;3.55;;;;;;;4.46;64.30;95605.38;5013690;28;20124;-79
2023/02/25 06:51:00;;;;;;;8.93;3.63;;;;;;;4.39;65.00;95615.56;5009253;28;20046;-80
2023/02/25 06:53:28;;;;;;;7.35;4.05;;;;;;;4.33;64.51;95616.25;5012740;28;20054;-79
2023/02/25 06:55:59;;;;;;;7.03;3.42;;;;;;;4.24;65.38;95606.91;5013211;28;20046;-79
2023/02/25 06:58:28;;;;;;;6.90;2.65;;;;;;;4.22;64.95;95619.19;5012924;28;20056;-79
2023/02/25 07:00:55;;;;;;;5.10;2.90;;;;;;;4.17;65.93;95629.22;5013944;28;20069;-78
2023/02/25 07:03:23;;;;;;;8.50;3.78;;;;;;;4.12;65.85;95629.72;5011734;28;20058;-79
2023/02/25 07:05:51;;;;;;;6.50;3.10;;;;;;;4.09;66.11;95636.00;5012403;28;20073;-78
2023/02/25 07:08:18;;;;;;;5.55;2.33;;;;;;;4.06;65.71;95636.31;5011834;28;20048;-77
2023/02/25 07:10:46;;;;;;;6.57;2.53;;;;;;;4.06;67.29;95641.47;5014346;28;20050;-79
2023/02/25 07:13:13;;;;;;;6.82;3.05;;;;;;;4.03;66.15;95636.66;5013032;28;20050;-79
2023/02/25 07:15:43;;;;;;;5.63;3.05;;;;;;;4.00;66.58;95631.84;4999431;28;20062;-77
2023/02/25 07:18:10;;;;;;;9.00;3.05;;;;;;;4.00;66.30;95637.00;5029428;28;20054;-78
2023/02/25 07:20:39;;;;;;;9.15;2.53;;;;;;;4.01;66.31;95628.28;5026408;28;20052;-78
2023/02/25 07:23:06;;;;;;;6.38;2.53;;;;;;;4.02;66.28;95627.28;5017605;28;20538;-78
2023/02/25 07:25:34;;;;;;;4.65;2.15;;;;;;;4.01;66.11;95628.28;5022282;28;20056;-80
2023/02/25 07:28:01;;;;;;;9.98;1.98;;;;;;;3.98;65.79;95636.34;5028617;28;20420;-80
2023/02/25 07:30:29;;;;;;;8.48;3.00;;;;;;;4.02;66.10;95639.41;5019832;28;20050;-80
2023/02/25 07:32:58;;;;;;;6.07;2.60;;;;;;;4.09;66.34;95646.34;5038964;28;20053;-78
2023/02/25 07:35:25;;;;;;;2.75;1.40;;;;;;;4.08;65.04;95644.72;5036156;28;20056;-79
2023/02/25 07:37:53;;;;;;;4.47;1.75;;;;;;;4.05;64.95;95639.88;5035722;28;20419;-79
2023/02/25 07:40:20;;;;;;;5.70;1.63;;;;;;;4.03;65.25;95638.44;5037425;28;20061;-79
2023/02/25 07:42:48;;;;;;;7.30;1.98;;;;;;;4.02;64.87;95635.03;5036234;28;20049;-79
2023/02/25 07:45:16;;;;;;;7.72;1.52;;;;;;;4.09;65.28;95641.16;5035571;28;20053;-79
2023/02/25 07:47:44;;;;;;;2.67;1.58;;;;;;;4.16;65.97;95635.34;5034849;28;20388;-78
2023/02/25 07:50:14;;;;;;;3.72;1.20;;;;;;;4.25;65.84;95634.34;5036492;28;20107;-79
2023/02/25 07:52:41;;;;;;;7.35;1.50;;;;;;;4.33;65.05;95640.31;5037243;28;20125;-79
2023/02/25 07:55:10;;;;;;;5.40;1.67;;;;;;;4.33;64.11;95636.91;5037290;28;20443;-79
2023/02/25 07:57:38;;;;;;;5.82;1.25;;;;;;;4.31;64.52;95633.69;5036192;28;20122;-78
2023/02/25 08:00:09;;;;;;;2.38;1.05;;;;;;;4.32;64.34;95637.88;5036132;28;20046;-79
2023/02/25 08:02:36;;;;;;;3.70;1.38;;;;;;;4.29;63.41;95640.81;5036607;28;20089;-79
2023/02/25 08:05:05;;;;;;;7.60;1.65;;;;;;;4.22;63.01;95645.00;5036400;28;20099;-79
2023/02/25 08:07:35;;;;;;;5.97;2.20;;;;;;;4.17;63.16;95636.94;5036386;28;20049;-79
2023/02/25 08:10:03;;;;;;;6.03;1.67;;;;;;;4.19;63.83;95645.34;5035681;28;20133;-79
2023/02/25 08:12:31;;;;;;;3.92;1.13;;;;;;;4.11;63.60;95644.41;5035982;28;20052;-79
2023/02/25 08:15:00;;;;;;;6.25;1.40;;;;;;;4.11;63.64;95635.81;5036461;28;20136;-79
2023/02/25 08:17:31;;;;;;;2.72;1.10;;;;;;;4.15;64.34;95636.31;5036364;28;20053;-79
2023/02/25 08:19:58;;;;;;;2.70;1.38;;;;;;;4.22;64.45;95638.06;5035928;28;20053;-79
2023/02/25 08:22:26;;;;;;;3.13;1.48;;;;;;;4.28;63.94;95641.75;5036274;28;20057;-79
2023/02/25 08:24:55;;;;;;;15.80;7.68;;;;;;;4.24;63.64;95643.88;5036389;28;20053;-78
2023/02/25 08:27:23;;;;;;;5.78;2.10;;;;;;;4.25;63.26;95648.06;5036122;28;20092;-79
2023/02/25 08:29:50;;;;;;;3.67;1.58;;;;;;;4.25;64.18;95650.63;5035105;28;20064;-79
2023/02/25 08:32:18;;;;;;;5.03;1.48;;;;;;;4.25;63.19;95650.63;5035861;28;20063;-79
2023/02/25 08:34:46;;;;;;;4.90;1.33;;;;;;;4.27;62.92;95655.66;5036210;28;20059;-78
2023/02/25 08:37:15;;;;;;;3.70;1.60;;;;;;;4.31;63.94;95659.50;5036346;28;20156;-79
2023/02/25 08:39:42;;;;;;;8.63;4.25;;;;;;;4.33;62.93;95653.22;5035696;28;20053;-79
2023/02/25 08:42:13;;;;;;;4.75;1.45;;;;;;;4.29;62.46;95651.13;5036152;28;20054;-79
2023/02/25 08:44:41;;;;;;;4.78;1.38;;;;;;;4.28;63.75;95655.47;5035732;28;20059;-79
2023/02/25 08:47:08;;;;;;;10.40;1.67;;;;;;;4.30;63.26;95650.13;5036313;28;20052;-79
2023/02/25 08:49:36;;;;;;;3.17;1.20;;;;;;;4.34;64.23;95644.47;5034851;28;20069;-78
2023/02/25 08:52:04;;;;;;;4.88;1.90;;;;;;;4.36;63.22;95641.75;5035983;28;20052;-79
2023/02/25 08:54:31;;;;;;;4.80;1.52;;;;;;;4.41;62.97;95646.41;5035752;28;20056;-79
2023/02/25 08:56:59;;;;;;;5.60;1.20;;;;;;;4.44;62.60;95648.63;5036498;28;20136;-79
2023/02/25 08:59:34;;;;;;;6.85;1.80;;;;;;;4.50;63.19;95646.22;5056397;28;20061;-78
2023/02/25 09:02:02;;;;;;;4.55;1.48;;;;;;;4.49;61.56;95647.19;5057254;28;20083;-77
2023/02/25 09:04:30;;;;;;;5.88;1.17;;;;;;;4.42;60.90;95637.69;5057152;28;20073;-77
2023/02/25 09:06:57;;;;;;;4.00;1.40;;;;;;;4.41;62.11;95638.66;5055635;28;20080;-78
2023/02/25 09:09:25;;;;;;;6.32;2.25;;;;;;;4.39;60.37;95643.97;5037830;28;20049;-79
2023/02/25 09:11:54;;;;;;;3.83;1.10;;;;;;;4.41;60.30;95648.97;5035460;28;20056;-79
2023/02/25 09:14:22;;;;;;;13.68;6.60;;;;;;;4.45;61.20;95645.91;5035732;28;20510;-79
2023/02/25 09:16:51;;;;;;;19.42;9.77;;;;;;;4.47;60.42;95643.97;5037434;28;20076;-79
2023/02/25 09:19:19;;;;;;;3.92;1.70;;;;;;;4.49;60.30;95649.75;5034778;28;20076;-79
2023/02/25 09:21:47;;;;;;;5.07;1.42;;;;;;;4.48;59.72;95650.75;5034560;28;20076;-79
2023/02/25 09:24:16;;;;;;;5.88;1.30;;;;;;;4.46;60.31;95646.69;5035050;28;20131;-79
2023/02/25 09:26:44;;;;;;;5.53;1.98;;;;;;;4.46;59.91;95650.09;5035201;28;20059;-79
2023/02/25 09:29:11;;;;;;;4.97;1.83;;;;;;;4.49;60.34;95652.34;5034026;28;20061;-78
2023/02/25 09:31:39;;;;;;;3.97;1.50;;;;;;;4.51;59.96;95647.03;5034721;28;20056;-78
2023/02/25 09:34:12;;;;;;;8.55;1.75;;;;;;;4.45;59.30;95645.91;5035020;28;20073;-79
2023/02/25 09:36:39;;;;;;;7.68;2.13;;;;;;;4.39;59.78;95641.38;5034495;28;20140;-79
2023/02/25 09:39:08;;;;;;;2.85;1.30;;;;;;;4.38;60.18;95644.16;5034556;28;20049;-79
2023/02/25 09:41:44;;;;;;;3.33;1.10;;;;;;;4.37;59.21;95648.50;5033543;28;20046;-79
2023/02/25 09:44:15;;;;;;;3.05;0.95;;;;;;;4.39;60.54;95646.56;5034174;28;20052;-79
2023/02/25 09:46:51;;;;;;;7.75;1.77;;;;;;;4.49;60.98;95647.19;5034265;28;20049;-79
2023/02/25 09:49:27;;;;;;;41.90;23.75;;;;;;;4.61;62.09;95655.34;5033454;28;20431;-78
2023/02/25 09:52:02;;;;;;;4.82;2.30;;;;;;;4.66;58.09;95660.03;5036385;28;20060;-79
2023/02/25 09:54:34;;;;;;;5.15;1.52;;;;;;;4.56;58.65;95646.50;5035693;28;20057;-79
2023/02/25 09:57:06;;;;;;;6.22;1.10;;;;;;;4.52;59.11;95654.56;5034698;28;20164;-79
2023/02/25 09:59:34;;;;;;;2.53;0.98;;;;;;;4.50;59.06;95647.97;5038864;28;20059;-78
2023/02/25 10:02:19;;;;;;;2.17;0.80;;;;;;;4.52;58.01;95654.56;5048866;28;20059;-79
2023/02/25 10:04:55;;;;;;;4.25;1.05;;;;;;;4.52;59.24;95656.38;5041100;28;20053;-79
2023/02/25 10:07:27;;;;;;;4.50;1.15;;;;;;;4.52;58.83;95657.16;5034673;28;20490;-80
2023/02/25 10:10:02;;;;;;;5.78;2.03;;;;;;;4.51;57.80;95652.97;5033766;28;20053;-80
2023/02/25 10:12:36;;;;;;;6.40;1.63;;;;;;;4.47;58.12;95649.13;5034063;28;20056;-79
2023/02/25 10:15:20;;;;;;;3.50;1.10;;;;;;;4.42;57.09;95651.41;5033551;28;20063;-79
2023/02/25 10:18:01;;;;;;;2.42;1.15;;;;;;;4.45;58.96;95645.91;5032664;28;20056;-79
2023/02/25 10:20:51;;;;;;;3.17;0.88;;;;;;;4.48;56.44;95640.41;5033681;28;20053;-79
2023/02/25 10:23:33;;;;;;;2.83;0.90;;;;;;;4.50;56.67;95643.63;5049629;22;20054;-79
2023/02/25 10:26:07;;;;;;;2.80;0.80;;;;;;;4.53;56.49;95647.66;5016503;28;20115;-81
2023/02/25 10:28:36;;;;;;;5.00;0.80;;;;;;;4.49;57.07;95636.84;5013286;28;20052;-79
2023/02/25 10:31:06;;;;;;;3.78;0.88;;;;;;;4.47;57.93;95643.16;5013640;28;20057;-80
2023/02/25 10:33:36;;;;;;;2.72;1.05;;;;;;;4.50;57.06;95633.31;5013162;28;20061;-80
2023/02/25 10:36:09;;;;;;;2.53;0.85;;;;;;;4.53;56.51;95632.97;5013310;28;20049;-81
2023/02/25 10:38:41;;;;;;;3.85;0.70;;;;;;;4.60;57.83;95633.09;5012705;28;20097;-80
2023/02/25 10:41:09;;;;;;;5.18;1.00;;;;;;;4.66;57.40;95621.28;5013215;28;20065;-80
2023/02/25 10:43:36;;;;;;;2.95;0.93;;;;;;;4.67;57.30;95612.56;5012692;28;20053;-81
2023/02/25 10:46:12;;;;;;;2.42;0.90;;;;;;;4.71;57.37;95617.22;5013120;28;20050;-80
2023/02/25 10:48:42;;;;;;;3.03;0.98;;;;;;;4.78;56.97;95634.63;5012281;28;20146;-80
2023/02/25 10:51:13;;;;;;;3.80;0.80;;;;;;;4.73;56.38;95628.19;5013471;28;20061;-80
2023/02/25 10:54:01;;;;;;;2.83;1.10;;;;;;;4.72;55.33;95621.44;5015522;28;20058;-82
2023/02/25 10:56:33;;;;;;;3.13;0.90;;;;;;;4.73;56.29;95622.22;5017232;28;20050;-81
2023/02/25 10:59:03;;;;;;;2.05;1.00;;;;;;;4.84;56.70;95619.25;5016450;28;20084;-81
2023/02/25 11:01:37;;;;;;;4.43;0.98;;;;;;;4.91;56.16;95620.16;5026671;28;20033;-79
2023/02/25 11:04:11;;;;;;;4.72;1.20;;;;;;;4.91;55.40;95624.53;5040948;28;20046;-80
2023/02/25 11:06:41;;;;;;;2.40;1.00;;;;;;;4.90;56.63;95623.75;5036701;28;20081;-81
2023/02/25 11:09:28;;;;;;;4.95;1.60;;;;;;;4.93;55.35;95618.22;5016071;28;20136;-81
2023/02/25 11:11:58;;;;;;;3.55;0.93;;;;;;;4.94;56.57;95608.69;5017309;28;20058;-81
2023/02/25 11:14:28;;;;;;;2.03;1.33;;;;;;;5.00;56.58;95609.78;5016986;28;20073;-81
2023/02/25 11:17:03;;;;;;;2.42;1.02;;;;;;;5.03;57.22;95606.84;5016854;28;20148;-80
2023/02/25 11:19:37;;;;;;;3.75;0.95;;;;;;;5.06;57.41;95611.69;5016100;28;20129;-81
2023/02/25 11:22:17;;;;;;;3.50;0.95;;;;;;;5.12;56.01;95611.03;5016391;28;20056;-81
2023/02/25 11:24:52;;;;;;;2.22;1.15;;;;;;;5.16;56.62;95602.75;5016153;28;20046;-81
2023/02/25 11:27:29;;;;;;;3.05;0.88;;;;;;;5.14;54.74;95603.91;5016331;28;20451;-81
2023/02/25 11:30:03;;;;;;;1.45;0.90;;;;;;;5.08;55.38;95604.59;5015655;28;20053;-81
2023/02/25 11:32:32;;;;;;;5.50;1.10;;;;;;;5.03;55.94;95606.84;5018164;28;20057;-82
2023/02/25 11:35:06;;;;;;;2.45;0.80;;;;;;;5.04;56.18;95608.47;5019236;28;20124;-81
2023/02/25 11:37:39;;;;;;;2.53;0.95;;;;;;;5.11;55.49;95599.06;5016487;28;20125;-81
2023/02/25 11:40:24;;;;;;;1.40;0.60;;;;;;;5.13;55.56;95607.44;5016301;28;20064;-81
2023/02/25 11:43:15;;;;;;;2.50;1.38;;;;;;;5.15;55.72;95600.31;5016680;28;20535;-81
2023/02/25 11:45:54;;;;;;;3.60;1.33;;;;;;;5.16;55.71;95591.59;5016477;28;20401;-81
2023/02/25 11:48:25;;;;;;;4.45;1.13;;;;;;;5.27;56.67;95596.38;5015075;28;20411;-81
2023/02/25 11:51:04;;;;;;;5.53;1.00;;;;;;;5.43;55.56;95590.25;5016577;28;20089;-80
2023/02/25 11:53:56;;;;;;;2.95;1.27;;;;;;;5.50;55.98;95588.56;5015958;28;20054;-82
2023/02/25 11:56:28;;;;;;;1.00;0.63;;;;;;;5.51;56.43;95584.19;5015864;28;20096;-81
2023/02/25 11:59:12;;;;;;;2.08;0.88;;;;;;;5.51;54.79;95584.19;5015595;28;20435;-81
2023/02/25 12:01:56;;;;;;;3.00;1.40;;;;;;;5.50;54.02;95582.59;5015903;28;20060;-81
2023/02/25 12:04:44;;;;;;;2.95;0.75;;;;;;;5.46;54.30;95576.16;5014566;28;20056;-80
2023/02/25 12:07:52;;;;;;;3.30;1.08;;;;;;;5.41;54.32;95576.69;5015702;28;20050;-81
2023/02/25 12:11:01;;;;;;;1.85;0.90;;;;;;;5.26;54.54;95579.22;5004686;28;20054;-81
2023/02/25 12:13:49;;;;;;;2.88;1.13;;;;;;;5.20;55.24;95572.16;5015201;28;20500;-81
2023/02/25 12:16:48;;;;;;;3.42;1.10;;;;;;;5.19;54.87;95570.56;5015614;28;20062;-82
2023/02/25 12:19:39;;;;;;;1.73;0.80;;;;;;;5.19;55.70;95570.56;5015080;28;20053;-81
2023/02/25 12:22:45;;;;;;;3.85;1.10;;;;;;;5.14;54.89;95580.63;5015406;28;20128;-80
2023/02/25 12:25:25;;;;;;;5.25;1.10;;;;;;;5.03;55.40;95575.84;5015951;28;20050;-81
2023/02/25 12:28:17;;;;;;;7.53;1.20;;;;;;;4.96;56.44;95580.88;5014517;28;20169;-81
2023/02/25 12:30:59;;;;;;;3.13;1.00;;;;;;;4.98;58.59;95578.16;5015742;28;20050;-82
2023/02/25 12:33:48;;;;;;;8.18;3.65;;;;;;;5.06;57.11;95575.50;5015586;28;20077;-80
2023/02/25 12:36:34;;;;;;;3.13;1.20;;;;;;;5.09;58.10;95575.94;5015260;28;20072;-80
2023/02/25 12:39:27;;;;;;;2.28;1.17;;;;;;;5.20;56.97;95577.34;5014943;28;20084;-80
2023/02/25 12:42:06;;;;;;;3.38;1.10;;;;;;;5.26;56.55;95568.88;5015489;28;20060;-82
2023/02/25 12:45:01;;;;;;;2.67;0.88;;;;;;;5.34;56.24;95573.22;5015942;28;20133;-81
2023/02/25 12:47:56;;;;;;;4.30;1.33;;;;;;;5.43;55.13;95564.41;5020673;28;20125;-81
2023/02/25 12:51:05;;;;;;;3.70;1.20;;;;;;;5.50;55.67;95559.31;5014677;28;20053;-80
2023/02/25 12:53:46;;;;;;;2.90;1.65;;;;;;;5.58;55.57;95570.41;4972767;28;20050;-81
2023/02/25 12:56:55;;;;;;;4.38;1.23;;;;;;;5.53;53.84;95561.53;5033592;28;20050;-82
2023/02/25 12:59:36;;;;;;;2.80;1.58;;;;;;;5.40;54.74;95562.16;5021250;28;20056;-80
2023/02/25 13:02:27;;;;;;;2.13;1.25;;;;;;;5.31;55.27;95566.59;5036794;28;20219;-80
2023/02/25 13:05:17;;;;;;;2.47;1.10;;;;;;;5.24;54.68;95560.50;5029965;28;20081;-80
2023/02/25 13:08:26;;;;;;;3.47;1.33;;;;;;;5.20;55.00;95566.19;5018678;28;20089;-80
2023/02/25 13:11:00;;;;;;;2.92;1.33;;;;;;;5.16;55.51;95565.75;4993489;28;20054;-80
2023/02/25 13:13:53;;;;;;;2.10;1.00;;;;;;;5.20;55.67;95556.66;5018136;28;20057;-81
2023/02/25 13:16:35;;;;;;;4.97;1.20;;;;;;;5.24;57.19;95551.94;5017006;28;20089;-81
2023/02/25 13:19:24;;;;;;;3.47;1.40;;;;;;;5.26;55.13;95545.63;5015706;28;20050;-81
2023/02/25 13:22:03;;;;;;;3.15;1.15;;;;;;;5.18;55.89;95553.44;5014770;28;20271;-81
2023/02/25 13:24:41;;;;;;;3.28;1.20;;;;;;;5.14;56.10;95552.19;5014536;28;20463;-81
2023/02/25 13:27:31;;;;;;;8.10;1.80;;;;;;;5.11;56.04;95557.69;5014112;28;20061;-81
2023/02/25 13:30:23;;;;;;;1.92;1.23;;;;;;;5.09;56.84;95559.66;5013556;28;20419;-81
2023/02/25 13:33:02;;;;;;;4.93;1.50;;;;;;;5.15;57.96;95556.38;5014516;28;20486;-81
2023/02/25 13:35:47;;;;;;;4.78;1.75;;;;;;;5.32;56.91;95557.84;5014378;28;20050;-81
2023/02/25 13:38:34;;;;;;;3.85;1.65;;;;;;;5.43;56.67;95546.28;5014309;28;20472;-81
2023/02/25 13:41:19;;;;;;;1.98;1.38;;;;;;;5.50;55.49;95551.56;5014451;28;20049;-81
2023/02/25 13:44:00;;;;;;;1.95;1.10;;;;;;;5.52;55.39;95547.03;5018517;28;20077;-81
2023/02/25 13:46:42;;;;;;;3.97;1.55;;;;;;;5.61;54.98;95538.19;5026867;28;20050;-81
2023/02/25 13:49:34;;;;;;;2.27;1.40;;;;;;;5.75;56.51;95542.59;5023286;28;20042;-81
2023/02/25 13:52:23;;;;;;;2.83;1.48;;;;;;;5.90;55.10;95549.56;5020469;28;20310;-81
2023/02/25 13:55:22;;;;;;;3.55;1.48;;;;;;;6.03;54.14;95542.00;5016419;28;20057;-81
2023/02/25 13:58:12;;;;;;;2.90;1.25;;;;;;;6.19;54.13;95539.22;5014319;28;20046;-81
2023/02/25 14:01:06;;;;;;;2.53;1.45;;;;;;;6.36;54.07;95542.44;5014846;28;20128;-80
2023/02/25 14:04:07;;;;;;;1.85;0.95;;;;;;;6.55;53.33;95533.25;5013857;28;20054;-81
2023/02/25 14:06:49;;;;;;;2.63;1.60;;;;;;;6.74;52.22;95544.03;5013589;28;20053;-80
2023/02/25 14:09:30;;;;;;;4.03;1.00;;;;;;;6.76;53.06;95548.03;5013090;28;20042;-81
2023/02/25 14:12:09;;;;;;;3.83;1.15;;;;;;;6.80;51.45;95545.91;5013681;28;20049;-81
2023/02/25 14:14:59;;;;;;;3.17;0.90;;;;;;;6.76;51.02;95545.44;5013690;28;20058;-81
2023/02/25 14:17:46;;;;;;;3.53;1.00;;;;;;;6.66;50.71;95546.72;5013655;28;20477;-81
2023/02/25 14:20:24;;;;;;;3.00;1.02;;;;;;;6.52;51.65;95546.59;5015793;28;20050;-81
2023/02/25 14:22:55;;;;;;;1.33;1.00;;;;;;;6.39;52.37;95556.81;5015888;28;20129;-81
2023/02/25 14:25:38;;;;;;;3.45;1.33;;;;;;;6.24;52.08;95558.59;5014634;28;20534;-82
2023/02/25 14:28:15;;;;;;;4.57;1.10;;;;;;;6.13;53.04;95558.06;5011814;28;20064;-81
2023/02/25 14:30:57;;;;;;;3.85;1.85;;;;;;;6.02;53.00;95558.53;5013904;28;20056;-81
2023/02/25 14:33:42;;;;;;;4.55;1.92;;;;;;;5.91;54.21;95558.94;5017323;28;20046;-81
2023/02/25 14:36:21;;;;;;;2.30;1.13;;;;;;;5.87;54.71;95568.81;5016785;28;20053;-81
2023/02/25 14:39:14;;;;;;;5.38;1.50;;;;;;;5.85;56.50;95559.63;5014693;28;20068;-81
2023/02/25 14:41:57;;;;;;;4.37;1.97;;;;;;;5.77;55.64;95558.75;5014736;28;20056;-81
2023/02/25 14:44:31;;;;;;;3.75;1.80;;;;;;;5.72;57.10;95560.25;5013687;28;20500;-81
2023/02/25 14:47:03;;;;;;;7.00;1.42;;;;;;;5.79;56.58;95550.78;5012732;28;20054;-81
2023/02/25 14:49:39;;;;;;;2.15;1.50;;;;;;;5.89;55.76;95540.19;5012207;28;20053;-81
2023/02/25 14:52:25;;;;;;;6.43;1.58;;;;;;;5.96;54.82;95546.28;5012834;28;20108;-81
2023/02/25 14:55:17;;;;;;;5.22;1.25;;;;;;;5.93;54.35;95552.59;5013307;28;20057;-81
2023/02/25 14:58:21;;;;;;;2.35;1.17;;;;;;;5.95;54.55;95544.69;5022555;28;20058;-82
2023/02/25 15:01:13;;;;;;;3.05;1.50;;;;;;;6.03;55.04;95549.75;5020363;28;20129;-81
2023/02/25 15:04:10;;;;;;;2.97;1.35;;;;;;;6.11;55.86;95559.22;5013844;28;20061;-81
2023/02/25 15:06:52;;;;;;;4.93;1.50;;;;;;;6.14;55.36;95564.88;5013128;28;20058;-81
2023/02/25 15:10:10;;;;;;;3.00;1.20;;;;;;;6.17;54.16;95563.69;5012356;28;20085;-81
2023/02/25 15:12:53;;;;;;;2.97;1.45;;;;;;;6.14;54.46;95569.22;5012703;28;20049;-81
2023/02/25 15:15:34;;;;;;;5.35;1.88;;;;;;;6.12;54.67;95566.81;5012971;28;20057;-81
2023/02/25 15:18:27;;;;;;;3.50;1.50;;;;;;;6.08;55.03;95570.75;5011798;28;20467;-80
2023/02/25 15:20:56;;;;;;;5.00;1.35;;;;;;;6.02;54.26;95581.03;5012721;28;20282;-81
2023/02/25 15:23:41;;;;;;;2.75;1.90;;;;;;;5.93;54.79;95575.09;5012474;28;20129;-81
2023/02/25 15:26:22;;;;;;;5.72;2.00;;;;;;;5.90;53.87;95584.03;5012486;28;20042;-81
2023/02/25 15:28:50;;;;;;;3.15;1.52;;;;;;;5.89;55.06;95585.00;5011599;28;20064;-80
2023/02/25 15:31:31;;;;;;;3.47;1.52;;;;;;;5.89;54.26;95612.66;5012507;28;20133;-81
2023/02/25 15:34:33;;;;;;;1.63;0.80;;;;;;;5.81;55.98;95625.66;5012558;28;20054;-81
2023/02/25 15:37:21;;;;;;;0.68;0.52;;;;;;;5.50;59.94;95640.31;5012526;28;20042;-80
2023/02/25 15:39:52;;;;;;;0.38;0.38;;;;;;;5.13;60.25;95654.78;5014888;28;20062;-81
2023/02/25 15:42:51;;;;;;;0.70;0.63;;;;;;;4.74;63.46;95654.81;5016054;28;20061;-80
2023/02/25 15:45:40;;;;;;;0.30;0.30;;;;;;;4.52;64.85;95666.69;5015889;28;20046;-80
2023/02/25 15:48:33;;;;;;;0.40;0.40;;;;;;;4.33;64.92;95662.75;5015626;28;20050;-81
2023/02/25 15:51:02;;;;;;;0.45;0.45;;;;;;;4.15;63.76;95646.63;5015855;28;20500;-80
2023/02/25 15:53:40;;;;;;;0.90;0.65;;;;;;;4.02;65.53;95649.72;5015723;28;20046;-81
2023/02/25 15:56:44;;;;;;;0.80;0.63;;;;;;;3.91;66.89;95658.59;5017465;28;20054;-81
2023/02/25 15:59:45;;;;;;;0.50;0.50;;;;;;;3.82;67.97;95664.75;5018892;28;20050;-81
2023/02/25 16:02:40;;;;;;;2.58;0.90;;;;;;;3.75;67.87;95663.78;5021471;28;20058;-80
2023/02/25 16:05:24;;;;;;;1.08;0.65;;;;;;;3.75;67.43;95669.75;5023591;28;20050;-80
2023/02/25 16:08:05;;;;;;;0.98;0.88;;;;;;;3.74;67.48;95662.16;5022392;28;20061;-81
2023/02/25 16:10:40;;;;;;;1.45;0.95;;;;;;;3.74;67.63;95675.06;5019780;28;20064;-80
2023/02/25 16:13:14;;;;;;;1.35;0.90;;;;;;;3.67;68.20;95674.91;5020981;28;20057;-80
2023/02/25 16:15:47;;;;;;;0.77;0.60;;;;;;;3.67;68.16;95674.91;5022885;28;20137;-81
2023/02/25 16:18:17;;;;;;;;;;;;;;;3.74;69.69;95685.38;5020330;28;20056;-80
2023/02/25 16:20:49;;;;;;;1.20;0.80;;;;;;;3.78;68.81;95690.03;5019923;28;19922;-81
2023/02/25 16:23:17;;;;;;;3.15;0.77;;;;;;;3.81;67.64;95688.94;5031556;22;20444;-79
2023/02/25 16:25:57;;;;;;;1.77;1.10;;;;;;;3.82;69.85;95677.66;5016389;28;20052;-79
2023/02/25 16:28:36;;;;;;;2.05;1.05;;;;;;;3.87;69.71;95678.78;5016305;28;20080;-79
2023/02/25 16:31:12;;;;;;;0.90;0.60;;;;;;;3.88;68.39;95684.75;5016686;28;20427;-79
2023/02/25 16:33:48;;;;;;;1.27;0.77;;;;;;;3.92;68.79;95691.19;5016162;28;20108;-79